createdAt,value
2023-05-14T00:01:20.207Z,8.40
2023-05-14T00:03:54.522Z,8.70
2023-05-14T00:06:28.925Z,8.60
2023-05-14T00:09:04.528Z,8.40
2023-05-14T00:11:39.028Z,8.50
2023-05-14T00:14:13.386Z,8.10
2023-05-14T00:16:47.698Z,8.60
2023-05-14T00:19:21.955Z,8.70
2023-05-14T00:21:56.033Z,8.80
2023-05-14T00:24:30.533Z,9.70
2023-05-14T00:27:05.094Z,8.90
2023-05-14T00:29:39.567Z,8.50
2023-05-14T00:32:14.005Z,9.10
2023-05-14T00:34:48.206Z,8.60
2023-05-14T00:37:22.311Z,8.30
2023-05-14T00:39:56.498Z,8.40
2023-05-14T00:42:30.616Z,8.60
2023-05-14T00:45:05.066Z,9.00
2023-05-14T00:47:40.682Z,8.10
2023-05-14T00:50:17.930Z,8.20
2023-05-14T00:52:52.516Z,7.70
2023-05-14T00:55:27.845Z,7.80
2023-05-14T00:58:04.528Z,7.60
2023-05-14T01:00:39.454Z,8.00
2023-05-14T01:03:14.212Z,7.50
2023-05-14T01:06:02.358Z,7.30
2023-05-14T01:08:47.948Z,6.90
2023-05-14T01:11:30.750Z,7.30
2023-05-14T01:14:15.935Z,7.60
2023-05-14T01:16:53.705Z,6.90
2023-05-14T01:19:38.665Z,7.70
2023-05-14T01:22:13.535Z,7.20
2023-05-14T01:24:47.744Z,7.00
2023-05-14T01:27:31.362Z,7.20
2023-05-14T01:30:15.948Z,6.60
2023-05-14T01:32:56.153Z,6.80
2023-05-14T01:35:32.658Z,6.60
2023-05-14T01:38:11.812Z,7.10
2023-05-14T01:40:50.173Z,6.70
2023-05-14T01:43:25.602Z,6.60
2023-05-14T01:46:00.070Z,6.70
2023-05-14T01:48:35.034Z,6.50
2023-05-14T01:51:09.131Z,7.40
2023-05-14T01:53:43.396Z,6.00
2023-05-14T01:56:18.369Z,6.60
2023-05-14T01:58:52.571Z,6.30
2023-05-14T02:01:27.817Z,6.80
2023-05-14T02:04:02.319Z,7.30
2023-05-14T02:06:36.495Z,6.50
2023-05-14T02:09:11.351Z,6.30
2023-05-14T02:11:45.795Z,6.50
2023-05-14T02:14:20.080Z,6.10
2023-05-14T02:16:54.432Z,7.30
2023-05-14T02:19:28.659Z,6.70
2023-05-14T02:22:03.462Z,6.80
2023-05-14T02:24:38.072Z,7.00
2023-05-14T02:27:13.266Z,6.80
2023-05-14T02:29:47.426Z,7.60
2023-05-14T02:32:21.575Z,6.70
2023-05-14T02:34:55.726Z,6.90
2023-05-14T02:37:29.906Z,7.80
2023-05-14T02:40:04.550Z,7.10
2023-05-14T02:42:39.657Z,7.10
2023-05-14T02:45:14.847Z,7.50
2023-05-14T02:47:49.031Z,7.40
2023-05-14T02:50:23.729Z,7.60
2023-05-14T03:54:56.666Z,7.20
2023-05-14T03:57:31.096Z,7.60
2023-05-14T04:00:05.499Z,8.40
2023-05-14T04:02:50.900Z,8.20
2023-05-14T04:05:25.630Z,7.80
2023-05-14T04:07:59.902Z,7.90
2023-05-14T04:10:34.700Z,7.80
2023-05-14T04:13:08.824Z,7.50
2023-05-14T04:15:45.938Z,8.20
2023-05-14T04:18:20.869Z,7.40
2023-05-14T04:20:56.378Z,7.70
2023-05-14T04:23:31.912Z,8.00
2023-05-14T04:26:06.579Z,7.90
2023-05-14T04:28:40.719Z,7.00
2023-05-14T04:31:15.521Z,7.50
2023-05-14T04:33:49.970Z,7.20
2023-05-14T04:36:24.111Z,7.70
2023-05-14T04:38:58.296Z,7.70
2023-05-14T04:41:32.606Z,7.60
2023-05-14T04:44:08.243Z,7.50
2023-05-14T04:46:42.435Z,7.80
2023-05-14T04:49:16.552Z,7.40
2023-05-14T04:51:50.828Z,6.40
2023-05-14T04:54:25.063Z,7.50
2023-05-14T04:57:03.216Z,6.70
2023-05-14T04:59:37.710Z,7.10
2023-05-14T05:02:11.993Z,6.80
2023-05-14T05:04:47.283Z,7.00
2023-05-14T05:07:21.520Z,7.60
2023-05-14T05:09:55.748Z,7.70
2023-05-14T05:12:30.383Z,7.30
2023-05-14T05:15:05.176Z,7.20
2023-05-14T05:17:39.547Z,6.70
2023-05-14T05:20:15.941Z,6.30
2023-05-14T05:22:50.260Z,6.30
2023-05-14T05:25:26.338Z,6.00
2023-05-14T05:28:00.506Z,6.40
2023-05-14T05:30:34.690Z,6.30
2023-05-14T05:33:09.339Z,6.20
2023-05-14T05:35:44.678Z,6.60
2023-05-14T05:38:19.314Z,5.50
2023-05-14T05:40:53.874Z,5.80
2023-05-14T05:43:28.702Z,6.30
2023-05-14T05:46:03.293Z,6.00
2023-05-14T05:48:37.619Z,6.80
2023-05-14T05:51:12.140Z,5.80
2023-05-14T05:53:46.566Z,5.80
2023-05-14T05:56:22.249Z,6.60
2023-05-14T05:58:56.875Z,5.70
2023-05-14T06:01:31.473Z,5.50
2023-05-14T06:04:06.419Z,6.10
2023-05-14T06:06:40.845Z,5.20
2023-05-14T06:09:16.198Z,5.40
2023-05-14T06:11:50.523Z,5.70
2023-05-14T06:14:25.313Z,4.70
2023-05-14T06:16:59.899Z,4.60
2023-05-14T06:19:34.316Z,4.80
2023-05-14T06:22:09.228Z,4.20
2023-05-14T06:24:43.448Z,3.90
2023-05-14T06:27:17.651Z,4.30
2023-05-14T06:29:52.035Z,4.40
2023-05-14T06:32:26.238Z,4.10
2023-05-14T06:35:00.463Z,4.10
2023-05-14T06:37:34.949Z,3.70
2023-05-14T06:40:12.306Z,3.70
2023-05-14T06:42:46.838Z,3.60
2023-05-14T06:45:21.431Z,3.70
2023-05-14T06:47:58.732Z,3.30
2023-05-14T06:50:33.103Z,3.40
2023-05-14T06:53:07.234Z,2.90
2023-05-14T06:55:42.066Z,3.20
2023-05-14T06:58:16.354Z,2.70
2023-05-14T07:00:51.168Z,2.80
2023-05-14T07:03:25.621Z,2.70
2023-05-14T07:06:00.282Z,2.80
2023-05-14T07:08:34.506Z,3.00
2023-05-14T07:11:08.710Z,2.40
2023-05-14T07:13:43.316Z,2.30
2023-05-14T07:16:17.647Z,2.40
2023-05-14T07:18:51.942Z,2.30
2023-05-14T07:21:26.548Z,2.00
2023-05-14T07:24:00.995Z,2.10
2023-05-14T07:26:35.357Z,2.30
2023-05-14T07:29:09.549Z,2.10
2023-05-14T07:31:43.860Z,1.70
2023-05-14T07:34:18.596Z,1.80
2023-05-14T07:36:52.941Z,2.00
2023-05-14T07:39:27.258Z,2.30
2023-05-14T07:42:01.530Z,1.80
2023-05-14T07:44:36.146Z,1.60
2023-05-14T07:47:10.867Z,1.80
2023-05-14T07:49:45.532Z,1.90
2023-05-14T07:52:19.820Z,1.40
2023-05-14T07:54:55.187Z,1.20
2023-05-14T07:57:29.388Z,1.30
2023-05-14T08:00:04.063Z,1.30
2023-05-14T08:02:46.731Z,1.40
2023-05-14T08:05:21.229Z,1.30
2023-05-14T08:07:55.851Z,1.00
2023-05-14T08:10:32.759Z,1.10
2023-05-14T08:13:08.805Z,1.20
2023-05-14T08:15:42.923Z,1.20
2023-05-14T08:18:17.123Z,1.30
2023-05-14T08:20:51.469Z,1.10
2023-05-14T08:23:26.023Z,1.20
2023-05-14T08:26:00.570Z,1.30
2023-05-14T08:28:34.764Z,1.10
2023-05-14T08:31:09.149Z,1.20
2023-05-14T08:33:43.824Z,1.00
2023-05-14T08:36:18.778Z,1.10
2023-05-14T08:38:53.665Z,1.30
2023-05-14T08:41:28.876Z,1.50
2023-05-14T08:44:13.647Z,1.40
2023-05-14T08:46:48.926Z,0.90
2023-05-14T08:49:36.846Z,1.00
2023-05-14T08:52:12.018Z,1.10
2023-05-14T08:54:46.814Z,1.20
2023-05-14T08:57:24.958Z,1.30
2023-05-14T08:59:59.818Z,1.50
2023-05-14T09:02:36.189Z,1.20
2023-05-14T09:05:12.741Z,1.40
2023-05-14T09:07:47.373Z,1.30
2023-05-14T09:10:23.222Z,1.10
2023-05-14T09:12:58.023Z,1.10
2023-05-14T09:15:34.274Z,1.10
2023-05-14T09:18:11.282Z,1.10
2023-05-14T09:20:48.084Z,1.00
2023-05-14T09:23:22.610Z,1.10
2023-05-14T09:25:57.463Z,1.00
2023-05-14T09:28:31.966Z,0.80
2023-05-14T09:31:07.029Z,0.60
2023-05-14T09:33:41.524Z,0.70
2023-05-14T09:36:15.709Z,1.00
2023-05-14T09:38:49.886Z,0.90
2023-05-14T09:41:24.514Z,0.80
2023-05-14T09:43:59.360Z,1.10
2023-05-14T09:46:33.639Z,0.90
2023-05-14T09:49:08.493Z,0.70
2023-05-14T09:51:43.636Z,0.70
2023-05-14T09:54:17.818Z,1.00
2023-05-14T09:56:55.604Z,0.80
2023-05-14T09:59:30.170Z,1.00
2023-05-14T10:02:06.776Z,0.90
2023-05-14T10:04:42.466Z,1.00
2023-05-14T10:07:18.592Z,0.80
2023-05-14T10:09:59.352Z,1.20
2023-05-14T10:12:38.232Z,0.90
2023-05-14T10:15:22.035Z,1.10
2023-05-14T10:18:04.935Z,1.00
2023-05-14T10:20:41.399Z,1.00
2023-05-14T10:23:16.453Z,0.80
2023-05-14T10:25:51.262Z,0.80
2023-05-14T10:28:25.704Z,0.90
2023-05-14T10:31:01.233Z,0.90
2023-05-14T10:33:50.881Z,0.90
2023-05-14T10:36:25.510Z,0.70
2023-05-14T10:39:05.349Z,0.90
2023-05-14T10:41:42.963Z,1.00
2023-05-14T10:44:18.733Z,0.70
2023-05-14T10:46:54.210Z,0.90
2023-05-14T10:49:42.877Z,0.90
2023-05-14T10:52:20.868Z,0.90
2023-05-14T10:54:57.826Z,1.20
2023-05-14T10:57:33.898Z,0.90
2023-05-14T11:00:12.934Z,0.90
2023-05-14T11:02:50.077Z,0.80
2023-05-14T11:05:29.108Z,0.80
2023-05-14T11:08:11.970Z,0.60
2023-05-14T11:10:48.028Z,0.80
2023-05-14T11:13:27.452Z,0.80
2023-05-14T11:16:21.134Z,0.80
2023-05-14T11:19:06.323Z,0.80
2023-05-14T11:21:41.100Z,0.80
2023-05-14T11:24:15.930Z,0.80
2023-05-14T11:26:50.392Z,0.90
2023-05-14T11:29:24.976Z,0.70
2023-05-14T11:31:59.579Z,1.10
2023-05-14T11:34:34.735Z,0.70
2023-05-14T11:37:12.745Z,1.00
2023-05-14T11:39:55.803Z,0.80
2023-05-14T11:42:30.290Z,0.60
2023-05-14T11:45:04.990Z,1.10
2023-05-14T11:47:39.497Z,0.80
2023-05-14T11:50:14.751Z,0.90
2023-05-14T11:52:50.923Z,0.80
2023-05-14T11:55:25.675Z,0.70
2023-05-14T11:58:02.028Z,1.30
2023-05-14T12:00:36.494Z,1.00
2023-05-14T12:03:13.000Z,0.70
2023-05-14T12:06:01.210Z,0.90
2023-05-14T12:08:36.402Z,0.90
2023-05-14T12:11:12.050Z,0.90
2023-05-14T12:13:46.717Z,1.00
2023-05-14T12:16:23.841Z,0.80
2023-05-14T12:19:03.637Z,0.80
2023-05-14T12:21:39.889Z,0.80
2023-05-14T12:24:18.388Z,0.80
2023-05-14T12:26:55.639Z,1.10
2023-05-14T12:29:31.103Z,0.80
2023-05-14T12:32:09.414Z,0.90
2023-05-14T12:34:43.737Z,0.90
2023-05-14T12:37:18.600Z,0.90
2023-05-14T12:39:52.844Z,1.20
2023-05-14T12:42:27.526Z,1.20
2023-05-14T12:45:05.621Z,1.00
2023-05-14T12:47:40.193Z,1.30
2023-05-14T12:50:15.343Z,1.30
2023-05-14T12:52:49.710Z,1.00
2023-05-14T12:55:24.738Z,1.30
2023-05-14T12:57:59.049Z,1.50
2023-05-14T13:00:33.291Z,1.30
2023-05-14T13:03:07.571Z,1.40
2023-05-14T13:05:42.214Z,1.40
2023-05-14T13:08:18.052Z,1.40
2023-05-14T13:10:52.547Z,1.60
2023-05-14T13:13:27.557Z,1.50
2023-05-14T13:16:01.908Z,1.50
2023-05-14T13:18:36.318Z,1.50
2023-05-14T13:21:12.837Z,2.10
2023-05-14T13:23:47.232Z,1.60
2023-05-14T13:26:21.812Z,1.60
2023-05-14T13:28:56.464Z,1.70
2023-05-14T13:31:30.812Z,1.80
2023-05-14T13:34:05.130Z,1.90
2023-05-14T13:36:39.848Z,1.90
2023-05-14T13:39:15.354Z,2.00
2023-05-14T13:41:50.831Z,2.00
2023-05-14T13:44:25.225Z,2.10
2023-05-14T13:46:59.659Z,2.30
2023-05-14T13:49:34.390Z,1.80
2023-05-14T13:52:09.792Z,1.80
2023-05-14T13:54:44.201Z,2.10
2023-05-14T13:57:23.264Z,1.80
2023-05-14T13:59:57.661Z,2.00
2023-05-14T14:02:33.537Z,1.80
2023-05-14T14:05:10.495Z,2.10
2023-05-14T14:07:44.781Z,2.20
2023-05-14T14:10:19.239Z,2.10
2023-05-14T14:12:54.288Z,1.80
2023-05-14T14:15:29.304Z,2.00
2023-05-14T14:18:03.845Z,2.10
2023-05-14T14:20:39.635Z,2.00
2023-05-14T14:23:13.826Z,2.10
2023-05-14T14:25:47.971Z,2.50
2023-05-14T14:28:22.177Z,2.20
2023-05-14T14:30:56.600Z,2.50
2023-05-14T14:33:31.373Z,2.60
2023-05-14T14:36:05.981Z,2.50
2023-05-14T14:38:40.390Z,2.40
2023-05-14T14:41:15.457Z,2.40
2023-05-14T14:43:49.974Z,2.20
2023-05-14T14:46:24.282Z,2.10
2023-05-14T14:48:58.596Z,2.30
2023-05-14T14:51:33.216Z,2.70
2023-05-14T14:54:08.103Z,2.30
2023-05-14T14:56:43.639Z,2.40
2023-05-14T14:59:17.891Z,2.60
2023-05-14T15:01:52.127Z,2.60
2023-05-14T15:04:26.397Z,2.40
2023-05-14T15:07:00.845Z,2.20
2023-05-14T15:09:35.880Z,2.10
2023-05-14T15:12:11.505Z,2.10
2023-05-14T15:14:45.932Z,2.00
2023-05-14T15:17:20.278Z,2.30
2023-05-14T15:19:54.709Z,2.50
2023-05-14T15:22:29.166Z,2.30
2023-05-14T15:25:04.881Z,2.70
2023-05-14T15:27:39.601Z,2.40
2023-05-14T15:30:17.060Z,2.10
2023-05-14T15:32:51.521Z,2.20
2023-05-14T15:35:26.311Z,2.10
2023-05-14T15:38:01.322Z,2.10
2023-05-14T15:40:35.700Z,2.70
2023-05-14T15:43:10.368Z,2.20
2023-05-14T15:45:47.014Z,2.40
2023-05-14T15:48:21.757Z,2.60
2023-05-14T15:50:56.649Z,2.80
2023-05-14T15:53:33.281Z,2.70
2023-05-14T15:56:08.449Z,2.50
2023-05-14T15:58:42.995Z,2.60
2023-05-14T16:01:17.469Z,2.70
2023-05-14T16:03:53.515Z,3.00
2023-05-14T16:06:28.490Z,2.90
2023-05-14T16:09:03.754Z,2.90
2023-05-14T16:11:38.630Z,3.10
2023-05-14T16:14:13.601Z,2.70
2023-05-14T16:16:48.007Z,2.80
2023-05-14T16:19:22.209Z,2.90
2023-05-14T16:21:56.793Z,3.30
2023-05-14T16:24:31.182Z,2.80
2023-05-14T16:27:05.632Z,3.20
2023-05-14T16:29:39.959Z,2.90
2023-05-14T16:32:14.267Z,3.00
2023-05-14T16:34:50.038Z,3.00
2023-05-14T16:37:24.356Z,2.90
2023-05-14T16:39:58.774Z,3.40
2023-05-14T16:42:33.121Z,3.20
2023-05-14T16:45:09.155Z,3.10
2023-05-14T16:47:43.394Z,2.90
2023-05-14T16:50:18.087Z,2.70
2023-05-14T16:52:52.307Z,2.80
2023-05-14T16:55:27.095Z,2.90
2023-05-14T16:58:01.339Z,3.10
2023-05-14T17:00:35.547Z,2.70
2023-05-14T17:03:09.901Z,2.80
2023-05-14T17:05:44.295Z,2.70
2023-05-14T17:08:18.496Z,3.20
2023-05-14T17:10:52.643Z,3.10
2023-05-14T17:13:27.524Z,3.00
2023-05-14T17:16:19.918Z,3.10
2023-05-14T17:19:52.629Z,3.20
2023-05-14T17:22:27.467Z,3.60
2023-05-14T17:25:01.725Z,3.40
2023-05-14T17:27:36.571Z,3.60
2023-05-14T17:30:13.637Z,3.20
2023-05-14T17:32:50.303Z,3.30
2023-05-14T17:35:25.657Z,3.20
2023-05-14T17:38:00.757Z,3.10
2023-05-14T17:40:35.428Z,3.10
2023-05-14T17:43:09.861Z,2.90
2023-05-14T17:45:53.951Z,3.20
2023-05-14T17:48:29.027Z,3.20
2023-05-14T17:51:03.427Z,3.10
2023-05-14T17:53:38.281Z,2.90
2023-05-14T17:56:12.825Z,2.80
2023-05-14T17:58:47.402Z,3.10
2023-05-14T18:01:21.916Z,3.20
2023-05-14T18:03:56.550Z,3.40
2023-05-14T18:06:31.054Z,3.30
2023-05-14T18:09:05.915Z,3.30
2023-05-14T18:11:40.630Z,3.60
2023-05-14T18:14:15.397Z,3.20
2023-05-14T18:16:50.296Z,3.10
2023-05-14T18:19:25.191Z,3.10
2023-05-14T18:21:59.725Z,3.90
2023-05-14T18:24:34.559Z,3.20
2023-05-14T18:27:09.791Z,3.30
2023-05-14T18:29:44.473Z,3.50
2023-05-14T18:32:18.932Z,3.10
2023-05-14T18:34:53.984Z,3.10
2023-05-14T18:37:29.132Z,3.40
2023-05-14T18:40:04.773Z,3.20
2023-05-14T18:42:40.390Z,3.30
2023-05-14T18:45:16.760Z,3.40
2023-05-14T18:47:54.916Z,3.30
2023-05-14T18:50:29.827Z,3.10
2023-05-14T18:53:04.515Z,3.40
2023-05-14T18:55:40.096Z,3.60
2023-05-14T18:58:14.656Z,3.40
2023-05-14T19:00:49.276Z,3.60
2023-05-14T19:03:23.965Z,3.90
2023-05-14T19:06:03.494Z,3.90
2023-05-14T19:08:38.896Z,3.60
2023-05-14T19:11:13.380Z,3.80
2023-05-14T19:13:49.646Z,3.70
2023-05-14T19:16:25.778Z,3.60
2023-05-14T19:19:00.362Z,3.80
2023-05-14T19:21:35.191Z,4.90
2023-05-14T19:24:10.952Z,4.90
2023-05-14T19:26:46.941Z,4.40
2023-05-14T19:29:21.453Z,6.20
2023-05-14T19:31:56.175Z,5.40
2023-05-14T19:34:31.071Z,6.10
2023-05-14T19:37:06.732Z,5.90
2023-05-14T19:39:41.696Z,6.70
2023-05-14T19:42:16.116Z,5.30
2023-05-14T19:44:50.558Z,5.40
2023-05-14T19:47:25.750Z,4.80
2023-05-14T19:50:00.391Z,4.90
2023-05-14T19:52:35.072Z,5.40
2023-05-14T19:55:11.358Z,4.50
2023-05-14T19:57:45.838Z,4.30
2023-05-14T20:00:22.894Z,4.30
2023-05-14T20:02:59.721Z,4.10
2023-05-14T20:05:36.413Z,4.00
2023-05-14T20:08:11.754Z,4.10
2023-05-14T20:10:47.650Z,4.30
2023-05-14T20:13:24.464Z,4.40
2023-05-14T20:16:00.236Z,4.30
2023-05-14T20:18:35.022Z,3.90
2023-05-14T20:21:09.616Z,3.80
2023-05-14T20:23:44.205Z,4.40
2023-05-14T20:26:19.016Z,4.60
2023-05-14T20:28:53.851Z,4.80
2023-05-14T20:31:29.048Z,4.80
2023-05-14T20:34:03.751Z,4.60
2023-05-14T20:36:38.594Z,5.00
2023-05-14T20:39:14.524Z,4.90
2023-05-14T20:41:49.210Z,5.70
2023-05-14T20:44:23.756Z,5.30
2023-05-14T20:46:58.338Z,5.60
2023-05-14T20:49:33.019Z,6.10
2023-05-14T20:52:08.183Z,5.80
2023-05-14T20:54:42.891Z,6.00
2023-05-14T20:57:17.991Z,5.50
2023-05-14T20:59:54.175Z,6.00
2023-05-14T21:02:28.673Z,6.80
2023-05-14T21:05:03.294Z,7.10
2023-05-14T21:07:37.792Z,7.20
2023-05-14T21:10:13.994Z,6.80
2023-05-14T21:12:48.466Z,7.30
2023-05-14T21:15:23.319Z,8.40
2023-05-14T21:17:58.578Z,8.10
2023-05-14T21:20:33.309Z,8.00
2023-05-14T21:23:07.728Z,8.10
2023-05-14T21:25:41.986Z,8.30
2023-05-14T21:28:16.474Z,8.40
2023-05-14T21:30:53.055Z,7.80
2023-05-14T21:33:27.641Z,6.90
2023-05-14T21:36:02.317Z,7.70
2023-05-14T21:38:37.141Z,7.00
2023-05-14T21:41:11.539Z,7.30
2023-05-14T21:43:46.140Z,7.50
2023-05-14T21:46:20.899Z,7.20
2023-05-14T21:48:55.504Z,6.60
2023-05-14T21:51:30.216Z,7.60
2023-05-14T21:54:04.503Z,7.90
2023-05-14T21:56:39.810Z,8.10
2023-05-14T21:59:14.107Z,8.10
2023-05-14T22:02:05.694Z,7.80
2023-05-14T22:04:41.472Z,8.30
2023-05-14T22:07:16.109Z,8.00
2023-05-14T22:09:50.371Z,8.10
2023-05-14T22:12:24.882Z,8.90
2023-05-14T22:14:59.338Z,8.70
2023-05-14T22:17:34.479Z,7.90
2023-05-14T22:20:11.813Z,7.80
2023-05-14T22:22:46.226Z,7.80
2023-05-14T22:25:20.704Z,8.20
2023-05-14T22:27:55.228Z,9.00
2023-05-14T22:30:29.496Z,9.00
2023-05-14T22:33:03.831Z,8.60
2023-05-14T22:35:38.051Z,8.90
2023-05-14T22:38:12.200Z,8.10
2023-05-14T22:40:46.306Z,7.80
2023-05-14T22:43:20.442Z,8.30
2023-05-14T22:45:54.886Z,8.20
2023-05-14T22:48:29.377Z,8.90
2023-05-14T22:51:03.794Z,8.10
2023-05-14T22:53:38.016Z,7.80
2023-05-14T22:56:12.439Z,8.80
2023-05-14T22:58:46.722Z,8.80
2023-05-14T23:01:20.887Z,8.50
2023-05-14T23:03:55.091Z,9.00
2023-05-14T23:06:29.511Z,9.60
2023-05-14T23:09:03.724Z,9.30
2023-05-14T23:11:37.730Z,8.70
2023-05-14T23:14:12.098Z,9.60
2023-05-14T23:16:46.303Z,9.80
2023-05-14T23:19:21.292Z,9.90
2023-05-14T23:21:55.668Z,10.60
2023-05-14T23:24:29.887Z,10.60
2023-05-14T23:27:04.081Z,9.60
2023-05-14T23:29:38.529Z,8.70
2023-05-14T23:32:13.112Z,9.20
2023-05-14T23:34:47.464Z,8.80
2023-05-14T23:37:21.787Z,9.10
2023-05-14T23:39:56.547Z,8.60
2023-05-14T23:42:30.807Z,8.90
2023-05-14T23:45:05.391Z,10.00
2023-05-14T23:47:39.978Z,9.70
2023-05-14T23:50:14.624Z,9.00
2023-05-14T23:52:48.899Z,9.30
2023-05-14T23:55:24.673Z,9.80
2023-05-14T23:57:59.160Z,8.90
